»·PEaware :: AAL4476 KDEN-KEGE

AAL4476 :: KDEN-KEGE

FLIGHT INFORMATION

Flight Status: Arrived
Operator:
American Airlines
More flights by this operator :: More flights under this callsign
Pilot: Jamie M. (16133)
Aircraft: DEHAVILLAND DASH 8 400
(DH8D)
More flights by this aircraft type
Origin: KDEN Denver Intl
United States
Destination: KEGE Eagle Co Regl
United States
More flights between these airports :: More routes between these airports
Route: ROCKI3 RLG
File this flight plan on PilotEdge
Remarks:
Altitude:
(Current/Filed)
16,000ft
Speed:
(Current/Filed)
250kts
Departed: 14-May-18 03:14 PM
Arrived: 14-May-18 04:05 PM
Distance/Time
Traveled:
105nm/0:50
Distance/Time
To Go:
Arrived

Flight Plot

Page will automatically refresh every two minutes.


Map Options




Map Legend


Flown Route
Filed Route
Departure Airport
Arrival Airport
Navaid (VOR, NDB)
Fix

Horizontal Profiles

Position Reports

Time Latitude Longitude Heading Altitude Ground
Speed
14-May-18 14:22 39.853408 -104.676667 0 5438ft 0kts
14-May-18 14:23 39.853408 -104.676667 0 5438ft 0kts
14-May-18 14:24 39.853408 -104.676667 0 5438ft 0kts
14-May-18 14:25 39.853408 -104.676667 0 5438ft 0kts
14-May-18 14:26 39.853408 -104.676667 0 5438ft 0kts
14-May-18 14:27 39.853408 -104.676667 0 5438ft 0kts
14-May-18 14:28 39.853408 -104.676667 0 5438ft 0kts
14-May-18 14:29 39.853408 -104.676667 0 5438ft 0kts
14-May-18 14:30 39.853408 -104.676667 0 5438ft 0kts
14-May-18 14:31 39.853408 -104.676667 0 5438ft 0kts
14-May-18 14:32 39.853408 -104.676667 0 5438ft 0kts
14-May-18 14:33 39.853408 -104.676667 0 5438ft 0kts
14-May-18 14:34 39.853408 -104.676667 0 5438ft 0kts
14-May-18 14:35 39.853408 -104.676667 0 5438ft 0kts
14-May-18 14:36 39.853408 -104.676667 0 5438ft 0kts
14-May-18 14:37 39.853408 -104.676667 0 5438ft 0kts
14-May-18 14:38 39.853408 -104.676667 0 5438ft 0kts
14-May-18 14:39 39.853408 -104.676667 0 5438ft 0kts
14-May-18 14:40 39.853408 -104.676667 0 5438ft 0kts
14-May-18 14:41 39.853408 -104.676667 0 5438ft 0kts
14-May-18 14:42 39.853408 -104.676667 0 5438ft 0kts
14-May-18 14:43 39.853408 -104.676667 0 5438ft 0kts
14-May-18 14:44 39.853408 -104.676667 0 5438ft 0kts
14-May-18 14:45 39.853408 -104.676667 0 5438ft 0kts
14-May-18 14:46 39.853408 -104.676667 0 5438ft 0kts
14-May-18 14:47 39.853408 -104.676667 0 5438ft 0kts
14-May-18 14:48 39.853408 -104.676667 0 5438ft 0kts
14-May-18 14:49 39.853408 -104.676667 0 5438ft 0kts
14-May-18 14:50 39.853408 -104.676667 0 5438ft 0kts
14-May-18 14:51 39.853408 -104.676667 0 5438ft 0kts
14-May-18 14:52 39.853408 -104.676667 0 5438ft 0kts
14-May-18 14:53 39.853408 -104.676667 0 5438ft 0kts
14-May-18 14:54 39.853408 -104.676667 0 5438ft 0kts
14-May-18 14:55 39.853408 -104.676667 0 5438ft 0kts
14-May-18 14:56 39.853408 -104.676667 0 5438ft 0kts
14-May-18 14:57 39.853408 -104.676667 0 5438ft 0kts
14-May-18 14:58 39.853408 -104.676667 0 5438ft 0kts
14-May-18 14:59 39.853408 -104.676667 0 5438ft 0kts
14-May-18 15:00 39.853408 -104.676667 0 5438ft 0kts
14-May-18 15:01 39.853203 -104.676660 352 5438ft 2kts
14-May-18 15:02 39.852828 -104.676209 270 5438ft 0kts
14-May-18 15:03 39.852828 -104.676208 270 5438ft 0kts
14-May-18 15:04 39.852828 -104.676207 270 5438ft 0kts
14-May-18 15:05 39.852837 -104.677453 270 5438ft 7kts
14-May-18 15:06 39.852861 -104.681183 271 5438ft 9kts
14-May-18 15:07 39.853105 -104.683127 270 5438ft 4kts
14-May-18 15:08 39.850720 -104.684019 179 5438ft 15kts
14-May-18 15:09 39.846917 -104.684086 180 5438ft 20kts
14-May-18 15:10 39.842205 -104.684163 179 5438ft 11kts
14-May-18 15:11 39.841796 -104.684164 180 5438ft 0kts
14-May-18 15:12 39.841796 -104.684164 180 5438ft 0kts
14-May-18 15:13 39.840697 -104.684617 251 5438ft 13kts
14-May-18 15:14 39.841010 -104.719518 270 5655ft 160kts
14-May-18 15:15 39.844873 -104.778519 275 7700ft 165kts
14-May-18 15:16 39.848783 -104.841058 273 9471ft 177kts
14-May-18 15:17 39.856209 -104.905953 304 11255ft 185kts
14-May-18 15:18 39.905090 -104.926395 348 13329ft 190kts
14-May-18 15:19 39.959608 -104.935297 349 15214ft 199kts
14-May-18 15:20 39.997845 -104.978577 269 16083ft 225kts
14-May-18 15:21 40.001325 -105.067858 268 16043ft 253kts
14-May-18 15:22 40.005766 -105.164985 271 16031ft 288kts
14-May-18 15:23 40.010720 -105.272784 272 15992ft 309kts
14-May-18 15:24 40.015898 -105.377200 271 16029ft 282kts
14-May-18 15:25 40.020710 -105.475904 270 16052ft 275kts
14-May-18 15:26 40.025231 -105.570224 271 16086ft 258kts
14-May-18 15:27 40.029382 -105.663530 270 16111ft 275kts
14-May-18 15:28 40.026930 -105.767086 265 16118ft 299kts
14-May-18 15:29 40.022834 -105.875349 266 16095ft 301kts
14-May-18 15:30 40.019288 -105.981886 266 16083ft 291kts
14-May-18 15:31 40.015727 -106.085748 266 16090ft 284kts
14-May-18 15:32 40.012140 -106.186930 265 16029ft 281kts
14-May-18 15:33 40.008422 -106.288118 265 15934ft 281kts
14-May-18 15:34 40.004405 -106.389606 261 15337ft 274kts
14-May-18 15:35 39.959790 -106.454777 207 14638ft 240kts
14-May-18 15:36 39.901558 -106.485463 200 14128ft 227kts
14-May-18 15:37 39.841247 -106.510802 199 13869ft 233kts
14-May-18 15:38 39.781766 -106.535502 198 13703ft 223kts
14-May-18 15:39 39.724644 -106.559475 199 13197ft 214kts
14-May-18 15:40 39.682556 -106.601879 261 12703ft 209kts
14-May-18 15:41 39.678329 -106.669032 261 12309ft 206kts
14-May-18 15:42 39.670783 -106.740725 259 11841ft 210kts
14-May-18 15:43 39.658492 -106.811138 251 10012ft 196kts
14-May-18 15:44 39.646143 -106.884336 262 6878ft 211kts
14-May-18 15:45 39.632465 -106.952560 229 7330ft 210kts
14-May-18 15:46 39.618426 -107.006522 294 9874ft 143kts
14-May-18 15:47 39.656755 -107.018022 25 11171ft 167kts
14-May-18 15:48 39.699344 -106.981550 32 12802ft 194kts
14-May-18 15:49 39.747502 -106.947737 2 14775ft 207kts
14-May-18 15:50 39.818810 -106.941836 0 15031ft 305kts
14-May-18 15:51 39.904443 -106.915767 41 15033ft 341kts
14-May-18 15:52 39.921542 -106.808073 100 14522ft 298kts
14-May-18 15:53 39.911632 -106.710136 99 14003ft 254kts
14-May-18 15:54 39.903016 -106.625775 100 14034ft 229kts
14-May-18 15:55 39.861291 -106.574111 159 14058ft 224kts
14-May-18 15:56 39.804305 -106.541394 157 14053ft 219kts
14-May-18 15:57 39.749457 -106.537524 194 13937ft 206kts
14-May-18 15:58 39.694856 -106.564458 225 13223ft 217kts
14-May-18 15:59 39.679018 -106.629677 259 12164ft 205kts
14-May-18 16:00 39.670591 -106.697841 260 10670ft 178kts
14-May-18 16:01 39.663868 -106.755634 261 9564ft 159kts
14-May-18 16:02 39.655230 -106.812683 258 8031ft 151kts
14-May-18 16:03 39.648747 -106.861004 261 7136ft 129kts
14-May-18 16:04 39.643691 -106.907272 260 6524ft 105kts
14-May-18 16:05 39.641105 -106.922568 132 6523ft 7kts
14-May-18 16:06 39.641090 -106.922544 129 6522ft 0kts
14-May-18 16:07 39.641090 -106.922544 129 6522ft 0kts
14-May-18 16:08 39.641022 -106.921723 82 6523ft 11kts
14-May-18 16:09 39.641536 -106.915838 120 6523ft 7kts
14-May-18 16:10 39.640548 -106.915449 171 6522ft 0kts
14-May-18 16:11 39.640548 -106.915449 171 6522ft 0kts
14-May-18 16:12 39.640548 -106.915449 171 6522ft 0kts
14-May-18 16:13 39.640548 -106.915449 171 6522ft 0kts
14-May-18 16:14 39.640548 -106.915449 171 6522ft 0kts
14-May-18 16:15 39.640548 -106.915449 171 6522ft 0kts
14-May-18 16:16 39.640548 -106.915449 171 6522ft 0kts
14-May-18 16:17 39.640548 -106.915449 171 6522ft 0kts

Navigation Log

Ident Type
1. KDEN Airport
2. DEN Navaid
3. ZIMMR Fix
4. RLG Navaid
5. KEGE Airport